Time;durP1;ratioP1;P1;durP2;ratioP2;P2;SDS_P1;SDS_P2;PMS_P1;PMS_P2;Temp;Humidity;BMP_temperature;BMP_pressure;BME280_temperature;BME280_humidity;BME280_pressure;Samples;Min_cycle;Max_cycle;Signal;HPM_P1;HPM_P2
2023/04/30 00:00:06;;;;;;;14.43;7.22;;;;;;;14.63;59.80;99838.03;5126063;28;20099;-33
2023/04/30 00:02:32;;;;;;;11.55;6.32;;;;;;;14.58;59.99;99840.66;5125964;27;20426;-33
2023/04/30 00:04:57;;;;;;;10.38;6.15;;;;;;;14.30;61.17;99831.69;5126088;28;20503;-33
2023/04/30 00:07:23;;;;;;;12.40;6.63;;;;;;;14.79;59.45;99828.25;5125733;28;20011;-33
2023/04/30 00:09:50;;;;;;;14.45;8.73;;;;;;;14.68;60.89;99818.50;5126186;27;20031;-33
2023/04/30 00:12:15;;;;;;;24.15;10.05;;;;;;;14.54;60.17;99831.44;5125973;27;20068;-33
2023/04/30 00:14:40;;;;;;;16.50;7.93;;;;;;;14.45;60.55;99833.75;5125865;27;20023;-33
2023/04/30 00:17:06;;;;;;;14.18;7.45;;;;;;;14.30;61.72;99829.00;5126045;27;20019;-34
2023/04/30 00:19:31;;;;;;;11.70;6.57;;;;;;;14.33;61.09;99822.34;5129265;27;20495;-34
2023/04/30 00:21:57;;;;;;;9.65;6.22;;;;;;;14.00;62.07;99824.88;5129942;27;20092;-33
2023/04/30 00:24:22;;;;;;;10.45;5.85;;;;;;;13.92;63.47;99822.63;5129489;27;20095;-33
2023/04/30 00:26:48;;;;;;;10.13;5.50;;;;;;;14.05;63.30;99816.06;5129438;27;20027;-33
2023/04/30 00:29:13;;;;;;;7.85;4.80;;;;;;;13.94;63.67;99825.84;5129559;27;20024;-33
2023/04/30 00:31:38;;;;;;;6.93;4.60;;;;;;;14.02;64.34;99830.81;5129479;27;20027;-33
2023/04/30 00:34:04;;;;;;;10.13;4.63;;;;;;;14.01;63.46;99826.47;5129460;27;20488;-33
2023/04/30 00:36:30;;;;;;;8.30;4.28;;;;;;;13.97;63.51;99825.34;5129697;27;20042;-34
2023/04/30 00:38:56;;;;;;;8.05;4.47;;;;;;;13.98;63.26;99827.00;5129314;27;20039;-34
2023/04/30 00:41:22;;;;;;;8.93;4.53;;;;;;;13.81;64.50;99823.50;5129011;27;20439;-33
2023/04/30 00:43:47;;;;;;;8.27;4.50;;;;;;;13.78;65.59;99821.34;5129256;27;20027;-33
2023/04/30 00:46:13;;;;;;;9.35;4.70;;;;;;;13.71;65.17;99816.16;5129146;27;20427;-35
2023/04/30 00:48:38;;;;;;;9.00;4.57;;;;;;;13.89;62.92;99817.72;5129395;27;20027;-33
2023/04/30 00:51:04;;;;;;;6.25;4.35;;;;;;;13.85;62.96;99819.28;5128946;27;20109;-32
2023/04/30 00:53:31;;;;;;;8.02;4.63;;;;;;;13.96;62.02;99820.25;5129267;27;20043;-33
2023/04/30 00:55:56;;;;;;;11.95;4.65;;;;;;;13.71;61.42;99809.97;5128892;27;20513;-33
2023/04/30 00:58:22;;;;;;;9.98;5.00;;;;;;;13.89;59.29;99823.09;5129108;27;20023;-33
2023/04/30 01:00:48;;;;;;;14.73;7.95;;;;;;;13.92;57.20;99822.63;5129090;27;20019;-33
2023/04/30 01:03:13;;;;;;;12.10;6.38;;;;;;;13.81;58.02;99823.50;5129034;27;20027;-33
2023/04/30 01:05:39;;;;;;;13.10;5.53;;;;;;;13.73;57.76;99824.75;5129211;27;20032;-33
2023/04/30 01:08:05;;;;;;;9.40;5.05;;;;;;;13.65;58.62;99817.94;5128574;27;20043;-33
2023/04/30 01:10:38;;;;;;;10.93;5.70;;;;;;;13.47;59.72;99804.81;5128729;27;20062;-35
2023/04/30 01:13:13;;;;;;;6.93;4.13;;;;;;;13.48;59.72;99814.44;5128842;27;20187;-33
2023/04/30 01:15:44;;;;;;;7.85;4.28;;;;;;;13.30;60.30;99812.84;5128546;27;20046;-34
2023/04/30 01:18:17;;;;;;;7.35;4.25;;;;;;;13.27;61.16;99806.06;5128471;27;20031;-33
2023/04/30 01:20:49;;;;;;;8.35;4.13;;;;;;;13.49;60.72;99812.59;5128718;27;20019;-33
2023/04/30 01:23:33;;;;;;;8.50;4.65;;;;;;;13.55;60.55;99806.25;5128741;27;20034;-34
2023/04/30 01:26:11;;;;;;;9.00;4.80;;;;;;;13.43;61.89;99811.69;5117094;27;20032;-34
2023/04/30 01:28:37;;;;;;;6.95;4.55;;;;;;;13.58;60.86;99803.88;5113715;27;20138;-33
2023/04/30 01:31:11;;;;;;;6.57;4.45;;;;;;;13.45;61.65;99778.25;5127520;27;20031;-32
2023/04/30 01:33:37;;;;;;;6.93;4.03;;;;;;;13.42;63.12;99802.88;5128152;27;20035;-32
2023/04/30 01:36:20;;;;;;;7.07;4.18;;;;;;;13.50;63.19;99809.66;5128310;27;20035;-34
2023/04/30 01:38:59;;;;;;;10.00;4.63;;;;;;;13.44;63.79;99800.75;5128145;27;20142;-34
2023/04/30 01:41:47;;;;;;;7.13;4.90;;;;;;;13.54;62.67;99802.75;5128365;27;20027;-34
2023/04/30 01:44:22;;;;;;;;;;;;;;;13.45;62.90;99806.91;5128783;27;20108;-33
2023/04/30 01:47:32;;;;;;;7.57;4.85;;;;;;;13.38;64.51;99800.91;5128212;27;19911;-33
2023/04/30 01:50:12;;;;;;;7.00;4.57;;;;;;;13.40;64.60;99798.78;5095941;27;20069;-33
2023/04/30 01:52:49;;;;;;;8.50;4.93;;;;;;;13.55;64.62;99801.72;5128001;27;20101;-34
2023/04/30 01:55:23;;;;;;;8.95;4.53;;;;;;;13.46;65.12;99804.00;5127984;27;20047;-33
2023/04/30 01:58:00;;;;;;;6.13;4.50;;;;;;;13.14;65.58;99784.97;5127729;27;20053;-33
2023/04/30 02:00:26;;;;;;;7.30;4.53;;;;;;;13.22;66.87;99797.94;5127824;27;20098;-34
2023/04/30 02:02:52;;;;;;;6.85;4.85;;;;;;;13.10;67.40;99799.88;5127704;27;20027;-33
2023/04/30 02:05:17;;;;;;;7.78;4.82;;;;;;;12.90;70.77;99796.88;5127639;27;20024;-33
2023/04/30 02:07:46;;;;;;;8.43;4.93;;;;;;;12.83;70.87;99784.44;5127672;27;20059;-34
2023/04/30 02:10:12;;;;;;;7.35;4.63;;;;;;;12.89;71.25;99808.59;5127713;27;20031;-35
2023/04/30 02:12:38;;;;;;;7.45;4.55;;;;;;;12.92;71.47;99806.25;5127332;27;20423;-33
2023/04/30 02:15:05;;;;;;;8.13;4.70;;;;;;;12.81;72.55;99804.44;5127539;27;20027;-34
2023/04/30 02:17:31;;;;;;;8.95;4.93;;;;;;;12.79;73.80;99802.03;5127545;27;20034;-33
2023/04/30 02:19:57;;;;;;;7.68;5.05;;;;;;;12.84;72.89;99804.78;5127612;27;20023;-35
2023/04/30 02:22:22;;;;;;;7.78;4.15;;;;;;;12.63;73.57;99794.78;5127241;27;20038;-33
2023/04/30 02:24:48;;;;;;;7.88;5.22;;;;;;;12.60;74.22;99800.59;5127380;27;20050;-33
2023/04/30 02:27:13;;;;;;;9.57;5.00;;;;;;;12.64;73.49;99796.38;5127456;27;20073;-33
2023/04/30 02:29:39;;;;;;;7.45;5.07;;;;;;;12.69;74.21;99801.00;5127035;27;20023;-33
2023/04/30 02:32:04;;;;;;;9.00;5.38;;;;;;;12.66;74.94;99795.09;5125519;27;20027;-33
2023/04/30 02:34:30;;;;;;;8.65;5.15;;;;;;;12.74;74.62;99793.91;5125975;27;20023;-34
2023/04/30 02:36:56;;;;;;;6.53;5.00;;;;;;;12.67;74.90;99790.56;5127384;27;20410;-33
2023/04/30 02:39:21;;;;;;;7.35;4.82;;;;;;;12.80;74.17;99792.94;5126750;27;20023;-34
2023/04/30 02:41:46;;;;;;;7.82;4.90;;;;;;;13.06;71.80;99793.41;5124782;27;20051;-34
2023/04/30 02:44:12;;;;;;;9.73;5.38;;;;;;;13.34;71.38;99802.44;5126895;27;20435;-36
2023/04/30 02:46:37;;;;;;;8.05;5.10;;;;;;;13.22;70.54;99797.94;5126466;27;20096;-33
2023/04/30 02:49:03;;;;;;;10.43;5.70;;;;;;;12.99;71.23;99798.06;5126679;27;20023;-33
2023/04/30 02:51:28;;;;;;;9.50;5.07;;;;;;;12.84;72.26;99796.75;5126710;27;20045;-33
2023/04/30 02:53:53;;;;;;;8.80;5.30;;;;;;;12.65;73.37;99793.47;5126685;27;20023;-34
2023/04/30 02:56:20;;;;;;;10.43;5.38;;;;;;;12.61;73.11;99791.53;5126253;27;20030;-33
2023/04/30 02:58:45;;;;;;;8.68;5.70;;;;;;;12.49;73.41;99772.03;5126763;27;20027;-33
2023/04/30 03:01:11;;;;;;;11.30;5.78;;;;;;;12.70;72.33;99792.75;5126611;27;20026;-34
2023/04/30 03:03:36;;;;;;;9.40;5.50;;;;;;;12.89;71.16;99805.94;5126951;27;20031;-34
2023/04/30 03:06:02;;;;;;;9.30;5.47;;;;;;;12.95;70.54;99779.00;5126463;27;20027;-33
2023/04/30 03:08:27;;;;;;;10.07;5.78;;;;;;;12.87;71.00;99795.44;5126504;27;20050;-33
2023/04/30 03:10:52;;;;;;;10.85;6.53;;;;;;;12.83;71.46;99797.81;5126617;27;20019;-33
2023/04/30 03:13:18;;;;;;;10.23;7.15;;;;;;;12.61;72.77;99802.22;5126469;27;20446;-33
2023/04/30 03:15:43;;;;;;;13.07;8.27;;;;;;;12.69;73.25;99804.50;5126289;27;20019;-33
2023/04/30 03:18:10;;;;;;;13.25;8.85;;;;;;;12.79;72.13;99810.06;5126311;27;20027;-34
2023/04/30 03:20:35;;;;;;;17.55;12.77;;;;;;;12.82;72.24;99798.06;5126592;27;20527;-33
2023/04/30 03:23:01;;;;;;;13.23;8.73;;;;;;;13.29;70.31;99813.03;5126199;27;20161;-34
2023/04/30 03:25:26;;;;;;;13.18;7.78;;;;;;;13.42;68.94;99804.72;5126477;27;20019;-34
2023/04/30 03:27:52;;;;;;;16.38;10.68;;;;;;;12.89;71.59;99803.25;5125995;27;20518;-33
2023/04/30 03:30:17;;;;;;;15.35;11.88;;;;;;;12.62;74.24;99811.84;5126456;27;20063;-33
2023/04/30 03:32:43;;;;;;;16.10;12.90;;;;;;;12.48;73.95;99815.88;5126245;27;20106;-33
2023/04/30 03:35:09;;;;;;;13.65;8.45;;;;;;;12.58;74.25;99816.06;5126611;27;20423;-34
2023/04/30 03:37:34;;;;;;;13.00;8.50;;;;;;;12.74;73.83;99811.81;5126245;27;20023;-34
2023/04/30 03:40:00;;;;;;;11.95;9.10;;;;;;;12.59;73.03;99815.81;5126257;27;20108;-33
2023/04/30 03:42:25;;;;;;;13.77;10.27;;;;;;;12.70;73.28;99816.81;5126238;27;20182;-34
2023/04/30 03:44:50;;;;;;;23.23;18.08;;;;;;;12.80;72.88;99826.91;5126070;28;20438;-35
2023/04/30 03:47:16;;;;;;;13.82;11.35;;;;;;;12.63;74.01;99818.84;5126219;28;20030;-32
2023/04/30 03:49:41;;;;;;;14.57;9.75;;;;;;;12.65;72.93;99824.78;5125856;27;20510;-33
2023/04/30 03:52:07;;;;;;;15.90;8.32;;;;;;;12.68;72.33;99818.94;5126203;27;20024;-33
2023/04/30 03:54:35;;;;;;;18.55;9.00;;;;;;;12.49;73.73;99838.91;5129384;27;20107;-33
2023/04/30 03:57:04;;;;;;;142.30;53.90;;;;;;;12.12;75.29;99815.16;5130573;27;20491;-33
2023/04/30 03:59:31;;;;;;;50.45;28.30;;;;;;;12.08;75.81;99816.66;5129900;27;20039;-33
2023/04/30 04:01:56;;;;;;;24.08;15.93;;;;;;;12.57;73.35;99841.19;5129885;27;20507;-34
2023/04/30 04:04:22;;;;;;;17.75;10.68;;;;;;;12.49;75.32;99841.56;5130295;27;20051;-34
2023/04/30 04:06:47;;;;;;;19.15;16.35;;;;;;;12.41;75.04;99840.06;5129987;27;20027;-33
2023/04/30 04:09:12;;;;;;;19.58;12.38;;;;;;;12.86;72.22;99850.84;5129851;27;20039;-34
2023/04/30 04:11:38;;;;;;;31.20;16.35;;;;;;;12.66;72.55;99853.94;5129534;27;20027;-34
2023/04/30 04:14:03;;;;;;;24.17;11.07;;;;;;;12.87;71.79;99854.34;5130117;27;20019;-34
2023/04/30 04:16:29;;;;;;;16.30;8.43;;;;;;;12.78;70.85;99851.22;5129784;27;20019;-35
2023/04/30 04:18:54;;;;;;;13.68;7.38;;;;;;;12.76;71.18;99858.69;5129940;27;20499;-34
2023/04/30 04:21:20;;;;;;;18.42;12.93;;;;;;;12.59;71.77;99857.81;5129718;27;20039;-33
2023/04/30 04:23:45;;;;;;;13.15;8.60;;;;;;;12.90;71.47;99845.03;5129430;27;20029;-33
2023/04/30 04:26:11;;;;;;;11.27;6.70;;;;;;;13.33;69.38;99865.09;5129525;27;20026;-33
2023/04/30 04:28:37;;;;;;;13.70;7.28;;;;;;;13.16;69.65;99851.66;5129346;27;20027;-34
2023/04/30 04:31:03;;;;;;;15.50;6.68;;;;;;;12.96;70.15;99857.47;5129872;27;20020;-34
2023/04/30 04:33:29;;;;;;;10.35;6.45;;;;;;;12.69;70.81;99860.69;5129289;27;20075;-34
2023/04/30 04:35:56;;;;;;;12.27;6.40;;;;;;;13.18;69.38;99861.06;5129399;27;20027;-34
2023/04/30 04:38:21;;;;;;;12.27;6.70;;;;;;;12.92;72.03;99862.47;5129312;27;20024;-34
2023/04/30 04:40:54;;;;;;;8.93;5.75;;;;;;;12.83;72.13;99862.03;5129375;27;20030;-33
2023/04/30 04:43:19;;;;;;;9.57;6.85;;;;;;;12.90;72.93;99859.22;5129578;27;20031;-33
2023/04/30 04:45:46;;;;;;;10.07;6.30;;;;;;;12.83;73.76;99858.53;5129016;27;20083;-35
2023/04/30 04:48:11;;;;;;;9.85;6.55;;;;;;;12.65;74.48;99852.34;5129483;27;20019;-33
2023/04/30 04:50:37;;;;;;;10.48;6.75;;;;;;;12.95;72.62;99872.69;5128963;27;20030;-34
2023/04/30 04:53:02;;;;;;;10.75;6.53;;;;;;;12.94;70.85;99854.22;5129239;27;20027;-34
2023/04/30 04:55:27;;;;;;;11.32;6.50;;;;;;;12.97;70.99;99867.91;5129165;27;20016;-33
2023/04/30 04:57:53;;;;;;;11.70;6.93;;;;;;;12.88;71.87;99871.22;5129070;27;20054;-33
2023/04/30 05:00:20;;;;;;;11.57;6.35;;;;;;;12.86;71.48;99874.13;5129002;27;20791;-34
2023/04/30 05:02:46;;;;;;;11.90;7.50;;;;;;;12.82;72.23;99873.78;5128994;27;20035;-33
2023/04/30 05:05:11;;;;;;;14.40;6.28;;;;;;;12.85;72.65;99873.31;5128018;27;20029;-33
2023/04/30 05:07:37;;;;;;;12.38;7.18;;;;;;;12.78;72.93;99875.31;5123205;27;20390;-33
2023/04/30 05:10:02;;;;;;;10.02;6.50;;;;;;;12.50;73.68;99864.56;5115214;27;20788;-33
2023/04/30 05:12:28;;;;;;;12.30;7.60;;;;;;;12.65;72.48;99879.09;5107973;28;20122;-35
2023/04/30 05:14:53;;;;;;;13.05;8.70;;;;;;;12.75;72.84;99881.16;5108037;28;20487;-34
2023/04/30 05:17:19;;;;;;;10.27;6.95;;;;;;;12.49;72.43;99887.84;5108158;28;20019;-33
2023/04/30 05:19:46;;;;;;;8.65;6.78;;;;;;;12.63;72.20;99888.41;5108250;28;20028;-36
2023/04/30 05:22:12;;;;;;;11.73;6.77;;;;;;;12.88;70.46;99887.28;5107951;28;20126;-34
2023/04/30 05:24:37;;;;;;;8.32;6.03;;;;;;;12.85;69.94;99888.53;5108003;28;20098;-33
2023/04/30 05:27:04;;;;;;;12.02;6.82;;;;;;;12.93;70.25;99884.69;5107844;28;20087;-33
2023/04/30 05:29:30;;;;;;;11.13;6.78;;;;;;;13.25;67.96;99887.69;5108065;28;20066;-33
2023/04/30 05:31:56;;;;;;;11.18;6.70;;;;;;;13.56;67.03;99889.06;5108209;28;20020;-35
2023/04/30 05:34:21;;;;;;;10.30;6.22;;;;;;;13.71;66.21;99895.72;5107670;28;20469;-34
2023/04/30 05:36:47;;;;;;;10.18;6.43;;;;;;;13.64;65.74;99890.53;5111805;27;20065;-34
2023/04/30 05:39:13;;;;;;;8.20;6.32;;;;;;;13.66;64.20;99891.91;5118966;27;20049;-33
2023/04/30 05:41:38;;;;;;;10.68;7.20;;;;;;;13.72;64.58;99892.00;5122291;27;20192;-32
2023/04/30 05:44:04;;;;;;;9.35;6.38;;;;;;;13.55;64.88;99897.34;5117129;27;20424;-32
2023/04/30 05:46:30;;;;;;;9.70;6.90;;;;;;;13.86;65.67;99891.41;5119711;27;20019;-34
2023/04/30 05:48:55;;;;;;;9.13;6.82;;;;;;;13.99;66.78;99892.94;5118461;27;20023;-34
2023/04/30 05:51:20;;;;;;;9.57;6.50;;;;;;;13.93;67.05;99882.41;5118757;27;20427;-34
2023/04/30 05:53:46;;;;;;;8.65;6.22;;;;;;;14.18;63.83;99896.19;5118672;27;20415;-34
2023/04/30 05:56:12;;;;;;;11.73;7.20;;;;;;;14.40;65.06;99898.88;5116073;27;20021;-34
2023/04/30 05:58:38;;;;;;;9.73;5.82;;;;;;;14.22;61.93;99881.22;5117648;27;20509;-33
2023/04/30 06:01:04;;;;;;;8.60;6.22;;;;;;;14.48;61.91;99897.63;5116787;27;20028;-34
2023/04/30 06:03:30;;;;;;;11.68;6.85;;;;;;;14.40;62.02;99901.56;5118434;27;20052;-33
2023/04/30 06:05:55;;;;;;;10.20;6.20;;;;;;;14.70;61.20;99903.06;5112680;27;20035;-33
2023/04/30 06:08:21;;;;;;;12.90;6.18;;;;;;;14.88;60.79;99909.19;5120652;27;20538;-33
2023/04/30 06:10:47;;;;;;;10.23;6.55;;;;;;;14.93;59.36;99915.41;5121176;27;20054;-33
2023/04/30 06:13:13;;;;;;;12.25;6.22;;;;;;;14.81;58.79;99915.56;5114710;27;20029;-35
2023/04/30 06:15:40;;;;;;;12.25;6.15;;;;;;;15.06;59.37;99906.16;5120985;27;20027;-33
2023/04/30 06:18:06;;;;;;;11.88;6.25;;;;;;;15.07;59.55;99908.56;5108561;27;20035;-33
2023/04/30 06:20:31;;;;;;;10.25;6.15;;;;;;;15.25;58.51;99910.09;5106751;27;20457;-35
2023/04/30 06:22:57;;;;;;;10.05;6.00;;;;;;;15.22;57.18;99909.78;5106911;28;20067;-33
2023/04/30 06:25:22;;;;;;;7.45;5.57;;;;;;;15.34;58.60;99909.66;5106555;28;20026;-33
2023/04/30 06:27:48;;;;;;;8.13;5.18;;;;;;;15.10;57.06;99896.53;5106862;28;20067;-33
2023/04/30 06:30:13;;;;;;;9.05;5.25;;;;;;;15.12;56.21;99891.72;5106432;28;20031;-35
2023/04/30 06:32:40;;;;;;;8.43;5.40;;;;;;;15.23;57.68;99901.50;5105485;28;20516;-33
2023/04/30 06:35:05;;;;;;;8.57;5.18;;;;;;;15.49;57.14;99904.44;5106480;28;20088;-34
2023/04/30 06:37:36;;;;;;;7.65;5.25;;;;;;;15.94;55.50;99905.09;5106638;28;20028;-33
2023/04/30 06:40:03;;;;;;;8.63;5.20;;;;;;;16.01;53.78;99889.53;5106262;28;20393;-33
2023/04/30 06:42:33;;;;;;;7.47;4.60;;;;;;;15.86;54.57;99893.72;5106117;28;20034;-33
2023/04/30 06:45:00;;;;;;;9.38;5.00;;;;;;;15.93;53.44;99893.50;5106492;28;20016;-34
2023/04/30 06:47:25;;;;;;;9.95;5.03;;;;;;;16.31;53.57;99904.25;5106506;28;20023;-33
2023/04/30 06:49:50;;;;;;;8.82;4.82;;;;;;;16.14;54.60;99893.63;5106197;27;20785;-34
2023/04/30 06:52:16;;;;;;;9.23;4.63;;;;;;;16.19;54.01;99885.59;5105963;28;20058;-34
2023/04/30 06:54:42;;;;;;;8.90;4.97;;;;;;;16.61;51.59;99898.19;5106108;28;20118;-33
2023/04/30 06:57:08;;;;;;;7.65;4.03;;;;;;;16.70;51.34;99883.16;5106555;28;20084;-34
2023/04/30 06:59:33;;;;;;;7.25;4.15;;;;;;;16.98;48.97;99899.94;5106312;28;20032;-33
2023/04/30 07:01:59;;;;;;;7.65;3.95;;;;;;;16.98;47.07;99905.34;5106067;28;20074;-33
2023/04/30 07:04:25;;;;;;;6.85;3.88;;;;;;;17.04;47.15;99901.59;5105791;28;20114;-33
2023/04/30 07:06:51;;;;;;;8.07;4.13;;;;;;;17.08;47.78;99902.72;5106133;28;20024;-34
2023/04/30 07:09:16;;;;;;;7.13;3.70;;;;;;;17.46;46.33;99889.81;5096730;28;20509;-33
2023/04/30 07:11:41;;;;;;;8.63;3.97;;;;;;;17.43;48.17;99890.38;5108757;27;20077;-34
2023/04/30 07:14:07;;;;;;;8.60;4.10;;;;;;;17.39;46.77;99891.97;5105770;28;20027;-33
2023/04/30 07:16:33;;;;;;;6.97;3.90;;;;;;;17.43;47.28;99893.06;5105987;28;20534;-34
2023/04/30 07:19:01;;;;;;;7.82;3.78;;;;;;;17.56;47.40;99889.81;5106095;28;20023;-33
2023/04/30 07:21:31;;;;;;;7.57;3.80;;;;;;;17.68;45.18;99890.34;5105689;28;20552;-32
2023/04/30 07:23:56;;;;;;;7.90;3.90;;;;;;;17.85;46.28;99889.28;5106016;28;20037;-33
2023/04/30 07:26:24;;;;;;;6.10;3.45;;;;;;;17.92;43.43;99895.22;5105846;28;20024;-33
2023/04/30 07:28:50;;;;;;;9.15;4.18;;;;;;;17.85;44.94;99886.59;5110834;28;20096;-33
2023/04/30 07:31:18;;;;;;;5.82;3.65;;;;;;;18.32;45.84;99890.81;5112697;27;20451;-33
2023/04/30 07:33:43;;;;;;;;;;;;;;;18.35;44.26;99894.84;5113073;27;20024;-32
2023/04/30 07:36:09;;;;;;;8.52;3.72;;;;;;;18.24;44.38;99896.78;5112860;27;19968;-33
2023/04/30 07:38:35;;;;;;;7.78;4.25;;;;;;;18.29;43.95;99899.47;5112446;27;20059;-33
2023/04/30 07:41:01;;;;;;;5.70;3.35;;;;;;;18.22;43.31;99897.03;5112584;27;20106;-33
2023/04/30 07:43:28;;;;;;;6.75;3.92;;;;;;;18.47;44.34;99888.09;5112519;27;20991;-34
2023/04/30 07:45:53;;;;;;;6.85;4.18;;;;;;;18.93;41.33;99907.91;5112797;27;20506;-33
2023/04/30 07:48:20;;;;;;;5.88;3.60;;;;;;;19.09;42.86;99898.63;5112100;27;20116;-35
2023/04/30 07:50:48;;;;;;;6.70;3.35;;;;;;;19.31;41.40;99908.22;5112227;28;20111;-32
2023/04/30 07:53:14;;;;;;;8.60;3.80;;;;;;;18.72;41.83;99890.97;5112673;27;20050;-33
2023/04/30 07:55:39;;;;;;;6.07;3.10;;;;;;;19.20;40.66;99908.28;5112273;27;20447;-34
2023/04/30 07:58:05;;;;;;;7.82;3.20;;;;;;;19.17;39.61;99881.81;5112954;27;20075;-33
2023/04/30 08:00:30;;;;;;;7.53;3.53;;;;;;;18.99;40.26;99895.97;5112363;27;20080;-33
2023/04/30 08:02:59;;;;;;;7.65;3.55;;;;;;;19.14;39.21;99885.06;5112395;27;20031;-32
2023/04/30 08:05:25;;;;;;;4.90;3.38;;;;;;;19.50;40.29;99900.25;5112340;27;20485;-34
2023/04/30 08:07:51;;;;;;;6.72;3.38;;;;;;;20.13;39.83;99891.34;5112180;27;20051;-33
2023/04/30 08:10:17;;;;;;;8.05;3.35;;;;;;;19.82;38.27;99899.75;5112174;27;20091;-33
2023/04/30 08:12:42;;;;;;;6.78;3.08;;;;;;;19.89;42.70;99891.28;5112291;28;20057;-33
2023/04/30 08:15:08;;;;;;;5.78;3.25;;;;;;;20.19;39.55;99895.59;5112288;28;20019;-33
2023/04/30 08:17:34;;;;;;;6.95;3.33;;;;;;;20.02;40.46;99886.03;5111985;28;20027;-33
2023/04/30 08:20:00;;;;;;;6.40;3.58;;;;;;;19.54;40.21;99885.06;5112196;27;20027;-32
2023/04/30 08:22:26;;;;;;;7.40;3.15;;;;;;;19.82;38.98;99875.41;5112209;27;20032;-33
2023/04/30 08:24:53;;;;;;;5.38;2.90;;;;;;;19.82;41.15;99887.03;5112257;27;20031;-35
2023/04/30 08:27:21;;;;;;;6.82;3.55;;;;;;;19.87;41.27;99880.75;5112364;27;20534;-33
2023/04/30 08:29:47;;;;;;;7.13;3.47;;;;;;;20.09;38.74;99882.19;5112114;27;20043;-33
2023/04/30 08:32:12;;;;;;;7.85;3.22;;;;;;;20.33;40.12;99880.28;5112284;27;20027;-32
2023/04/30 08:34:39;;;;;;;7.80;3.53;;;;;;;20.53;39.56;99878.41;5112012;27;20023;-33
2023/04/30 08:37:05;;;;;;;5.57;3.40;;;;;;;20.55;39.11;99877.03;5112103;27;20027;-33
2023/04/30 08:39:31;;;;;;;7.28;3.30;;;;;;;20.75;38.98;99876.00;5110638;27;20031;-35
2023/04/30 08:42:01;;;;;;;10.05;3.83;;;;;;;20.91;40.29;99870.38;5108956;28;20474;-33
2023/04/30 08:44:27;;;;;;;5.80;3.50;;;;;;;21.21;38.67;99867.22;5108964;28;20031;-33
2023/04/30 08:46:58;;;;;;;8.05;3.72;;;;;;;21.40;38.73;99869.09;5108486;27;20031;-34
2023/04/30 08:49:24;;;;;;;4.90;2.97;;;;;;;21.46;37.01;99881.53;5108633;28;20024;-32
2023/04/30 08:51:50;;;;;;;7.80;3.15;;;;;;;21.46;36.71;99863.31;5108682;28;20480;-33
2023/04/30 08:54:17;;;;;;;6.15;3.28;;;;;;;21.71;35.82;99871.34;5106971;28;20560;-32
2023/04/30 08:56:48;;;;;;;6.43;3.72;;;;;;;21.93;34.71;99876.91;5109192;28;20046;-33
2023/04/30 08:59:14;;;;;;;7.25;3.35;;;;;;;21.66;35.30;99873.03;5108572;28;20023;-33
2023/04/30 09:01:40;;;;;;;6.13;3.20;;;;;;;22.42;36.42;99859.16;5108532;28;20024;-34
2023/04/30 09:04:07;;;;;;;6.22;3.50;;;;;;;22.69;34.75;99873.84;5108458;28;20023;-33
2023/04/30 09:06:33;;;;;;;10.23;4.10;;;;;;;21.89;35.71;99870.47;5108111;28;20016;-36
2023/04/30 09:09:42;;;;;;;7.85;3.55;;;;;;;22.08;37.84;99857.63;5104376;28;20040;-33
2023/04/30 09:12:35;;;;;;;7.20;3.90;;;;;;;21.83;35.34;99855.38;5102710;27;20788;-34
2023/04/30 09:18:28;;;;;;;8.40;3.92;;;;;;;22.57;36.65;99849.09;5108393;28;20047;-33
2023/04/30 09:21:50;;;;;;;8.18;3.60;;;;;;;22.77;34.82;99848.66;5108194;28;20053;-33
2023/04/30 09:28:10;;;;;;;6.38;3.42;;;;;;;23.63;34.22;99847.72;5108092;28;20146;-33
2023/04/30 09:30:35;;;;;;;6.00;2.97;;;;;;;23.54;32.95;99844.16;5107795;28;20160;-34
2023/04/30 09:33:01;;;;;;;7.55;3.00;;;;;;;23.81;32.50;99848.66;5107334;28;20122;-32
2023/04/30 09:35:34;;;;;;;7.75;3.67;;;;;;;23.60;35.34;99823.84;5106871;28;20019;-34
2023/04/30 09:38:02;;;;;;;7.00;3.00;;;;;;;23.65;33.71;99842.78;5107626;28;20016;-32
2023/04/30 09:40:41;;;;;;;5.47;2.70;;;;;;;23.41;32.29;99826.78;5107892;28;20564;-33
2023/04/30 09:43:07;;;;;;;4.82;2.90;;;;;;;23.41;32.87;99825.97;5107805;28;20514;-33
2023/04/30 09:45:59;;;;;;;7.18;3.33;;;;;;;23.29;34.22;99839.34;5107672;28;20070;-33
2023/04/30 09:48:28;;;;;;;7.28;3.85;;;;;;;23.26;34.05;99824.44;5106344;28;20028;-33
2023/04/30 09:50:54;;;;;;;4.85;2.72;;;;;;;23.86;32.05;99831.38;5107045;28;20047;-33
2023/04/30 09:53:19;;;;;;;4.50;2.63;;;;;;;23.55;33.43;99810.38;5107599;28;20096;-33
2023/04/30 09:55:50;;;;;;;5.07;2.80;;;;;;;23.58;32.59;99804.31;5107396;28;20181;-33
2023/04/30 09:58:17;;;;;;;4.60;2.20;;;;;;;23.69;32.18;99815.72;5107335;28;20027;-34
2023/04/30 10:00:45;;;;;;;6.28;3.13;;;;;;;23.58;32.44;99801.59;5107460;28;20028;-34
2023/04/30 10:03:12;;;;;;;4.82;2.63;;;;;;;23.73;32.00;99815.91;5107134;28;20480;-33
2023/04/30 10:05:38;;;;;;;4.88;2.38;;;;;;;23.82;31.15;99809.44;5107177;28;20095;-34
2023/04/30 10:08:12;;;;;;;6.78;2.70;;;;;;;24.01;31.17;99806.47;5107024;28;20219;-34
2023/04/30 10:10:40;;;;;;;5.03;3.20;;;;;;;23.66;31.77;99805.47;5107201;28;20035;-32
2023/04/30 10:13:10;;;;;;;4.93;2.70;;;;;;;23.45;32.11;99795.09;5107547;28;20035;-32
2023/04/30 10:15:44;;;;;;;6.55;2.85;;;;;;;23.22;32.54;99799.78;5107604;28;20397;-34
2023/04/30 10:18:22;;;;;;;6.22;3.00;;;;;;;24.05;32.16;99784.84;5107178;28;20027;-32
2023/04/30 10:20:52;;;;;;;6.68;3.00;;;;;;;24.67;33.69;99786.59;5107246;27;20028;-33
2023/04/30 10:23:20;;;;;;;5.20;2.80;;;;;;;25.29;31.97;99798.28;5106750;28;20077;-33
2023/04/30 10:25:47;;;;;;;7.50;3.35;;;;;;;25.02;30.74;99805.66;5107370;28;20016;-33
2023/04/30 10:28:13;;;;;;;5.60;2.97;;;;;;;25.31;29.73;99806.94;5107013;28;20031;-33
2023/04/30 10:30:40;;;;;;;5.63;2.53;;;;;;;25.91;29.68;99786.06;5106601;28;20416;-33
2023/04/30 10:33:18;;;;;;;6.97;2.83;;;;;;;25.78;28.69;99771.47;5106484;28;20106;-33
2023/04/30 10:35:49;;;;;;;;;;;;;;;25.85;29.41;99793.63;5107215;28;20122;-33
2023/04/30 10:38:24;;;;;;;6.00;3.03;;;;;;;26.14;29.11;99781.13;5106700;28;19973;-33
2023/04/30 10:40:56;;;;;;;5.80;3.03;;;;;;;26.36;28.67;99788.25;5106179;27;20032;-33
2023/04/30 10:43:23;;;;;;;7.10;3.17;;;;;;;25.84;29.91;99781.09;5106686;28;20144;-33
2023/04/30 10:45:49;;;;;;;6.40;2.90;;;;;;;24.88;30.67;99775.81;5106497;28;20032;-34
2023/04/30 10:48:23;;;;;;;6.05;3.00;;;;;;;25.33;30.58;99780.13;5106623;28;20146;-33
2023/04/30 10:50:54;;;;;;;4.75;2.75;;;;;;;25.66;30.15;99775.72;5106357;28;20082;-33
2023/04/30 10:53:21;;;;;;;6.53;3.30;;;;;;;25.19;30.92;99780.28;5106475;28;20135;-34
2023/04/30 10:55:51;;;;;;;5.20;2.70;;;;;;;25.50;30.68;99771.09;5104752;28;20046;-32
2023/04/30 10:58:23;;;;;;;7.30;2.95;;;;;;;25.60;29.15;99782.47;5106433;28;20039;-33
2023/04/30 11:01:16;;;;;;;5.97;2.53;;;;;;;25.49;26.49;99775.75;5106240;28;20019;-33
2023/04/30 11:04:05;;;;;;;4.40;2.72;;;;;;;25.76;27.67;99773.72;5102550;27;20534;-34
2023/04/30 11:06:54;;;;;;;6.55;2.50;;;;;;;26.74;28.31;99769.00;5105919;28;20023;-33
2023/04/30 11:09:56;;;;;;;4.88;2.72;;;;;;;26.46;29.24;99764.03;5100176;28;20040;-33
2023/04/30 11:12:39;;;;;;;6.03;3.13;;;;;;;26.46;29.82;99769.50;5092638;28;20042;-32
2023/04/30 11:15:17;;;;;;;6.45;3.28;;;;;;;26.93;29.48;99754.03;5085566;28;20016;-34
2023/04/30 11:17:47;;;;;;;6.82;3.30;;;;;;;26.66;29.40;99767.13;5085383;28;20055;-34
2023/04/30 11:20:17;;;;;;;7.25;3.83;;;;;;;26.89;28.57;99758.56;5085800;28;20038;-33
2023/04/30 11:22:44;;;;;;;5.55;3.05;;;;;;;26.97;26.77;99749.47;5085490;28;20047;-35
2023/04/30 11:25:14;;;;;;;9.20;3.30;;;;;;;27.36;29.60;99763.75;5085623;28;20024;-34
2023/04/30 11:27:44;;;;;;;5.68;3.22;;;;;;;27.85;26.86;99752.88;5085801;28;20024;-33
2023/04/30 11:30:13;;;;;;;4.60;2.70;;;;;;;28.05;26.72;99738.28;5085771;28;20027;-33
2023/04/30 11:32:40;;;;;;;3.55;2.58;;;;;;;27.29;28.32;99756.09;5085376;28;20016;-33
2023/04/30 11:35:06;;;;;;;6.43;2.70;;;;;;;27.43;28.42;99748.38;5085535;28;20501;-33
2023/04/30 11:37:34;;;;;;;5.57;2.85;;;;;;;28.10;26.89;99747.41;5085126;28;20412;-33
2023/04/30 11:40:01;;;;;;;;;;;;;;;28.31;27.39;99750.00;5085934;28;20024;-34
2023/04/30 11:42:28;;;;;;;9.02;2.90;;;;;;;28.39;27.13;99747.13;5085601;28;19925;-33